Time;durP1;ratioP1;P1;durP2;ratioP2;P2;SDS_P1;SDS_P2;PMS_P1;PMS_P2;Temp;Humidity;BMP_temperature;BMP_pressure;BME280_temperature;BME280_humidity;BME280_pressure;Samples;Min_cycle;Max_cycle;Signal;HPM_P1;HPM_P2
2023/05/04 00:00:24;;;;;;;6.97;3.80;;;;;;;;;;5081558;28;20201;-67
2023/05/04 00:02:50;;;;;;;5.07;4.00;;;;;;;;;;5081546;28;20220;-67
2023/05/04 00:05:17;;;;;;;4.65;4.20;;;;;;;;;;5081682;28;20622;-67
2023/05/04 00:07:43;;;;;;;4.35;3.95;;;;;;;;;;5081679;28;20499;-67
2023/05/04 00:10:09;;;;;;;4.22;3.92;;;;;;;;;;5081560;28;20203;-67
2023/05/04 00:12:37;;;;;;;6.65;3.50;;;;;;;;;;5081725;28;20222;-67
2023/05/04 00:15:04;;;;;;;6.05;3.83;;;;;;;;;;5073435;28;20208;-67
2023/05/04 00:17:30;;;;;;;4.28;3.90;;;;;;;;;;5081419;28;20527;-67
2023/05/04 00:19:56;;;;;;;6.55;4.10;;;;;;;;;;5081333;28;20245;-67
2023/05/04 00:22:22;;;;;;;4.20;3.90;;;;;;;;;;5081631;28;20201;-67
2023/05/04 00:24:48;;;;;;;4.43;4.07;;;;;;;;;;5081406;28;20215;-67
2023/05/04 00:27:15;;;;;;;4.60;4.20;;;;;;;;;;5081408;28;20220;-67
2023/05/04 00:29:42;;;;;;;4.07;3.88;;;;;;;;;;5081196;28;20206;-67
2023/05/04 00:32:09;;;;;;;4.40;4.00;;;;;;;;;;5081388;28;20188;-67
2023/05/04 00:34:35;;;;;;;4.45;4.25;;;;;;;;;;5081501;28;20199;-67
2023/05/04 00:37:01;;;;;;;4.10;3.80;;;;;;;;;;5081402;28;20201;-67
2023/05/04 00:39:28;;;;;;;4.93;4.43;;;;;;;;;;5081265;28;20203;-67
2023/05/04 00:41:54;;;;;;;4.28;3.97;;;;;;;;;;5081392;28;20196;-67
2023/05/04 00:44:22;;;;;;;4.38;4.07;;;;;;;;;;5081218;28;20295;-67
2023/05/04 00:46:49;;;;;;;4.50;4.10;;;;;;;;;;5081102;28;20204;-67
2023/05/04 00:49:16;;;;;;;5.85;5.10;;;;;;;;;;5081128;28;20205;-67
2023/05/04 00:51:42;;;;;;;4.13;3.78;;;;;;;;;;5081344;28;20523;-67
2023/05/04 00:54:08;;;;;;;4.85;4.45;;;;;;;;;;5082175;28;20395;-67
2023/05/04 00:56:39;;;;;;;4.70;4.30;;;;;;;;;;5084929;28;20425;-67
2023/05/04 00:59:06;;;;;;;6.45;4.38;;;;;;;;;;5076629;28;20275;-67
2023/05/04 01:01:32;;;;;;;4.85;4.55;;;;;;;;;;5084870;28;20211;-67
2023/05/04 01:04:00;;;;;;;5.38;4.22;;;;;;;;;;5084700;28;20230;-67
2023/05/04 01:06:41;;;;;;;5.43;4.78;;;;;;;;;;5084814;28;20200;-67
2023/05/04 01:09:11;;;;;;;4.80;4.28;;;;;;;;;;5076329;28;20196;-67
2023/05/04 01:11:42;;;;;;;5.53;5.18;;;;;;;;;;5084856;28;20197;-67
2023/05/04 01:14:10;;;;;;;5.38;4.78;;;;;;;;;;5076745;28;20200;-67
2023/05/04 01:16:36;;;;;;;5.28;4.88;;;;;;;;;;5084469;28;20238;-67
2023/05/04 01:19:03;;;;;;;5.10;4.70;;;;;;;;;;5084107;28;20197;-67
2023/05/04 01:21:31;;;;;;;5.40;4.78;;;;;;;;;;5084281;28;20242;-67
2023/05/04 01:23:57;;;;;;;5.75;4.82;;;;;;;;;;5084265;28;20220;-67
2023/05/04 01:26:25;;;;;;;5.40;5.10;;;;;;;;;;5084144;28;20192;-67
2023/05/04 01:28:54;;;;;;;5.78;5.47;;;;;;;;;;5084164;28;20220;-67
2023/05/04 01:31:22;;;;;;;5.50;5.03;;;;;;;;;;5084217;28;20548;-67
2023/05/04 01:33:49;;;;;;;6.05;5.47;;;;;;;;;;5084071;28;20395;-67
2023/05/04 01:36:15;;;;;;;5.82;5.43;;;;;;;;;;5084325;28;20250;-67
2023/05/04 01:38:43;;;;;;;6.07;5.53;;;;;;;;;;5084086;28;20234;-67
2023/05/04 01:41:09;;;;;;;5.63;5.32;;;;;;;;;;5076072;28;20267;-67
2023/05/04 01:43:35;;;;;;;5.95;5.50;;;;;;;;;;5084372;28;20216;-67
2023/05/04 01:46:01;;;;;;;9.15;5.32;;;;;;;;;;5083858;28;20238;-67
2023/05/04 01:48:28;;;;;;;5.85;5.43;;;;;;;;;;5083865;28;20196;-67
2023/05/04 01:50:54;;;;;;;6.35;5.85;;;;;;;;;;5083837;28;20197;-67
2023/05/04 01:53:20;;;;;;;5.80;5.40;;;;;;;;;;5083967;28;20204;-67
2023/05/04 01:55:48;;;;;;;6.00;5.50;;;;;;;;;;5083783;28;20242;-67
2023/05/04 01:58:14;;;;;;;6.50;5.90;;;;;;;;;;5083697;28;20204;-67
2023/05/04 02:00:40;;;;;;;7.20;6.50;;;;;;;;;;5083470;28;20196;-67
2023/05/04 02:03:08;;;;;;;7.15;6.53;;;;;;;;;;5083424;28;20449;-67
2023/05/04 02:05:34;;;;;;;6.38;5.90;;;;;;;;;;5082896;28;20203;-67
2023/05/04 02:08:00;;;;;;;7.95;7.25;;;;;;;;;;5083736;28;20200;-67
2023/05/04 02:10:27;;;;;;;7.43;6.82;;;;;;;;;;5083297;28;20456;-67
2023/05/04 02:12:55;;;;;;;8.38;7.43;;;;;;;;;;5083174;28;20196;-67
2023/05/04 02:15:21;;;;;;;8.35;7.03;;;;;;;;;;5083888;28;20197;-67
2023/05/04 02:17:47;;;;;;;7.40;6.68;;;;;;;;;;5083034;28;20207;-67
2023/05/04 02:20:14;;;;;;;7.80;6.85;;;;;;;;;;5082989;28;20251;-67
2023/05/04 02:22:40;;;;;;;7.57;6.80;;;;;;;;;;5083342;28;20282;-67
2023/05/04 02:25:07;;;;;;;7.50;6.80;;;;;;;;;;5083196;28;20212;-67
2023/05/04 02:27:33;;;;;;;6.95;6.45;;;;;;;;;;5083048;28;20261;-67
2023/05/04 02:30:00;;;;;;;7.45;6.85;;;;;;;;;;5082804;28;20239;-67
2023/05/04 02:32:27;;;;;;;8.07;7.38;;;;;;;;;;5083236;28;20560;-67
2023/05/04 02:34:53;;;;;;;8.00;7.30;;;;;;;;;;5083076;28;20192;-67
2023/05/04 02:37:19;;;;;;;7.65;6.95;;;;;;;;;;5082832;28;20197;-67
2023/05/04 02:39:46;;;;;;;7.47;6.78;;;;;;;;;;5082642;28;20246;-67
2023/05/04 02:42:12;;;;;;;7.50;6.80;;;;;;;;;;5083005;28;20524;-67
2023/05/04 02:44:38;;;;;;;9.40;7.05;;;;;;;;;;5082677;28;20388;-67
2023/05/04 02:47:06;;;;;;;7.75;7.03;;;;;;;;;;5082564;28;20434;-65
2023/05/04 02:49:32;;;;;;;8.65;7.72;;;;;;;;;;5082622;28;20196;-66
2023/05/04 02:51:58;;;;;;;7.90;7.28;;;;;;;;;;5082467;28;20200;-66
2023/05/04 02:54:24;;;;;;;8.10;7.35;;;;;;;;;;5082528;28;20197;-66
2023/05/04 02:56:51;;;;;;;8.30;7.40;;;;;;;;;;5082800;28;20234;-66
2023/05/04 02:59:17;;;;;;;10.50;7.30;;;;;;;;;;5082303;28;20254;-66
2023/05/04 03:01:43;;;;;;;9.25;8.35;;;;;;;;;;5082720;28;20249;-66
2023/05/04 03:04:11;;;;;;;8.95;8.05;;;;;;;;;;5082318;28;20217;-66
2023/05/04 03:06:37;;;;;;;9.13;8.27;;;;;;;;;;5082728;28;20204;-66
2023/05/04 03:09:04;;;;;;;8.50;7.60;;;;;;;;;;5082171;28;20205;-66
2023/05/04 03:11:30;;;;;;;11.65;7.63;;;;;;;;;;5082455;28;20223;-66
2023/05/04 03:13:56;;;;;;;8.63;7.75;;;;;;;;;;5082052;28;20273;-66
2023/05/04 03:16:22;;;;;;;9.07;8.27;;;;;;;;;;5082428;28;20427;-66
2023/05/04 03:18:49;;;;;;;8.20;7.40;;;;;;;;;;5082075;28;20426;-66
2023/05/04 03:21:16;;;;;;;8.90;7.85;;;;;;;;;;5082003;28;20434;-66
2023/05/04 03:23:43;;;;;;;8.02;7.30;;;;;;;;;;5082015;28;20441;-66
2023/05/04 03:26:09;;;;;;;8.32;7.63;;;;;;;;;;5081995;28;20196;-66
2023/05/04 03:28:35;;;;;;;8.57;7.88;;;;;;;;;;5081752;28;20396;-66
2023/05/04 03:31:02;;;;;;;8.38;7.63;;;;;;;;;;5081917;28;20430;-66
2023/05/04 03:33:28;;;;;;;8.52;7.72;;;;;;;;;;5082202;28;20607;-66
2023/05/04 03:35:54;;;;;;;9.40;7.53;;;;;;;;;;5082031;28;20196;-66
2023/05/04 03:38:22;;;;;;;10.32;7.60;;;;;;;;;;5081966;28;20430;-66
2023/05/04 03:40:48;;;;;;;8.98;7.90;;;;;;;;;;5081732;28;20254;-66
2023/05/04 03:43:14;;;;;;;10.27;8.75;;;;;;;;;;5073888;28;20377;-66
2023/05/04 03:45:40;;;;;;;9.45;8.48;;;;;;;;;;5081926;28;20532;-66
2023/05/04 03:48:07;;;;;;;10.55;8.20;;;;;;;;;;5081627;28;20200;-66
2023/05/04 03:50:33;;;;;;;9.68;8.63;;;;;;;;;;5081787;28;20242;-66
2023/05/04 03:52:59;;;;;;;7.80;7.20;;;;;;;;;;5081658;28;20418;-66
2023/05/04 03:55:27;;;;;;;8.80;7.53;;;;;;;;;;5081656;28;20193;-66
2023/05/04 03:57:53;;;;;;;9.32;8.23;;;;;;;;;;5081787;28;20208;-66
2023/05/04 04:00:19;;;;;;;10.00;8.23;;;;;;;;;;5081572;28;20199;-66
2023/05/04 04:02:46;;;;;;;11.52;8.40;;;;;;;;;;5081881;28;20201;-66
2023/05/04 04:05:12;;;;;;;9.50;8.50;;;;;;;;;;5081549;28;20228;-66
2023/05/04 04:07:38;;;;;;;9.27;8.00;;;;;;;;;;5081788;28;20279;-66
2023/05/04 04:10:05;;;;;;;8.90;8.00;;;;;;;;;;5081311;28;20200;-66
2023/05/04 04:12:33;;;;;;;9.57;8.68;;;;;;;;;;5081869;28;20232;-66
2023/05/04 04:14:59;;;;;;;9.48;8.57;;;;;;;;;;5081465;28;20216;-66
2023/05/04 04:17:25;;;;;;;10.30;8.82;;;;;;;;;;5081485;28;20242;-68
2023/05/04 04:19:51;;;;;;;11.07;8.65;;;;;;;;;;5081434;28;20196;-68
2023/05/04 04:22:18;;;;;;;9.07;8.25;;;;;;;;;;5081548;28;20196;-68
2023/05/04 04:24:44;;;;;;;10.20;9.13;;;;;;;;;;5081542;28;20548;-68
2023/05/04 04:27:10;;;;;;;10.32;9.05;;;;;;;;;;5081326;28;20221;-68
2023/05/04 04:29:38;;;;;;;14.07;9.65;;;;;;;;;;5083158;28;20197;-68
2023/05/04 04:32:07;;;;;;;10.70;9.32;;;;;;;;;;5085357;28;20587;-68
2023/05/04 04:34:33;;;;;;;11.75;9.98;;;;;;;;;;5085493;28;20223;-68
2023/05/04 04:37:00;;;;;;;12.05;9.45;;;;;;;;;;5085150;28;20222;-68
2023/05/04 04:39:27;;;;;;;10.63;9.63;;;;;;;;;;5084961;28;20204;-68
2023/05/04 04:41:53;;;;;;;10.07;9.07;;;;;;;;;;5085363;28;20196;-68
2023/05/04 04:44:19;;;;;;;10.93;9.57;;;;;;;;;;5085185;28;20220;-68
2023/05/04 04:46:48;;;;;;;10.32;9.32;;;;;;;;;;5085138;28;20196;-67
2023/05/04 04:49:16;;;;;;;9.88;8.88;;;;;;;;;;5084837;28;20235;-67
2023/05/04 04:51:42;;;;;;;11.88;9.65;;;;;;;;;;5084932;28;20271;-67
2023/05/04 04:54:10;;;;;;;10.13;9.02;;;;;;;;;;5084804;28;20204;-68
2023/05/04 04:56:37;;;;;;;11.95;8.75;;;;;;;;;;5085131;28;20208;-68
2023/05/04 04:59:03;;;;;;;13.57;9.40;;;;;;;;;;5084734;28;20247;-67
2023/05/04 05:01:30;;;;;;;13.30;9.73;;;;;;;;;;5085013;28;20250;-67
2023/05/04 05:03:57;;;;;;;10.02;9.02;;;;;;;;;;5084786;28;20264;-67
2023/05/04 05:06:24;;;;;;;9.90;8.98;;;;;;;;;;5084609;28;20216;-68
2023/05/04 05:08:50;;;;;;;11.45;9.35;;;;;;;;;;5084753;28;20213;-68
2023/05/04 05:11:17;;;;;;;14.73;9.23;;;;;;;;;;5084489;28;20197;-68
2023/05/04 05:13:43;;;;;;;9.48;8.60;;;;;;;;;;5084643;28;20504;-68
2023/05/04 05:16:09;;;;;;;13.65;8.93;;;;;;;;;;5084432;28;20419;-68
2023/05/04 05:18:35;;;;;;;12.43;9.15;;;;;;;;;;5084586;28;20434;-68
2023/05/04 05:21:04;;;;;;;10.75;9.65;;;;;;;;;;5084059;28;20246;-68
2023/05/04 05:23:30;;;;;;;10.55;9.52;;;;;;;;;;5084481;28;20200;-68
2023/05/04 05:25:56;;;;;;;12.35;9.20;;;;;;;;;;5084297;28;20220;-68
2023/05/04 05:28:23;;;;;;;11.65;10.07;;;;;;;;;;5073834;28;20232;-56
2023/05/04 05:30:50;;;;;;;9.98;8.73;;;;;;;;;;5069994;28;20212;-57
2023/05/04 05:33:17;;;;;;;11.18;9.85;;;;;;;;;;5078933;28;20208;-58
2023/05/04 05:35:43;;;;;;;12.32;9.40;;;;;;;;;;5079158;28;20208;-56
2023/05/04 05:38:11;;;;;;;12.93;10.35;;;;;;;;;;5078454;28;20220;-57
2023/05/04 05:40:37;;;;;;;13.63;10.43;;;;;;;;;;5077616;28;20208;-57
2023/05/04 05:43:04;;;;;;;15.40;9.88;;;;;;;;;;5076667;28;20438;-57
2023/05/04 05:45:30;;;;;;;10.65;9.30;;;;;;;;;;5076088;28;20224;-57
2023/05/04 05:47:56;;;;;;;12.38;9.95;;;;;;;;;;5076140;28;20228;-58
2023/05/04 05:50:23;;;;;;;12.57;10.60;;;;;;;;;;5078796;28;20208;-56
2023/05/04 05:52:49;;;;;;;18.90;11.60;;;;;;;;;;5078524;28;20547;-57
2023/05/04 05:55:17;;;;;;;14.48;12.45;;;;;;;;;;5074546;28;20561;-56
2023/05/04 05:57:43;;;;;;;12.68;11.35;;;;;;;;;;5073776;28;20216;-55
2023/05/04 06:00:11;;;;;;;18.33;12.35;;;;;;;;;;5076513;28;20216;-57
2023/05/04 06:02:37;;;;;;;17.13;12.25;;;;;;;;;;5076837;28;20209;-58
2023/05/04 06:05:04;;;;;;;16.55;11.73;;;;;;;;;;5076251;28;20228;-56
2023/05/04 06:07:30;;;;;;;14.90;11.52;;;;;;;;;;5076709;28;20212;-56
2023/05/04 06:09:56;;;;;;;18.30;12.02;;;;;;;;;;5074846;28;20216;-55
2023/05/04 06:12:24;;;;;;;15.90;12.25;;;;;;;;;;5075785;28;20488;-56
2023/05/04 06:14:50;;;;;;;15.63;12.02;;;;;;;;;;5075476;28;20200;-57
2023/05/04 06:17:17;;;;;;;17.38;11.15;;;;;;;;;;5076012;28;20216;-57
2023/05/04 06:19:44;;;;;;;14.00;11.50;;;;;;;;;;5075417;28;20418;-57
2023/05/04 06:22:10;;;;;;;17.95;12.07;;;;;;;;;;5075851;28;20220;-57
2023/05/04 06:24:37;;;;;;;16.02;12.35;;;;;;;;;;5075833;28;20255;-56
2023/05/04 06:27:03;;;;;;;16.98;13.07;;;;;;;;;;5076533;28;20208;-57
2023/05/04 06:29:31;;;;;;;19.27;13.00;;;;;;;;;;5076601;28;20250;-58
2023/05/04 06:31:57;;;;;;;18.48;12.82;;;;;;;;;;5072706;28;20215;-55
2023/05/04 06:34:23;;;;;;;18.25;12.48;;;;;;;;;;5068239;28;20448;-57
2023/05/04 06:36:49;;;;;;;17.60;12.63;;;;;;;;;;5073250;28;20453;-57
2023/05/04 06:39:16;;;;;;;16.08;12.57;;;;;;;;;;5075815;28;20589;-56
2023/05/04 06:41:42;;;;;;;18.83;12.98;;;;;;;;;;5075388;28;20520;-57
2023/05/04 06:44:08;;;;;;;17.55;12.20;;;;;;;;;;5075255;28;20532;-56
2023/05/04 06:46:36;;;;;;;14.73;12.38;;;;;;;;;;5075109;28;20553;-56
2023/05/04 06:49:03;;;;;;;18.25;12.57;;;;;;;;;;5075290;28;20236;-55
2023/05/04 06:51:29;;;;;;;19.30;12.98;;;;;;;;;;5075046;28;20209;-56
2023/05/04 06:53:55;;;;;;;19.60;12.23;;;;;;;;;;5075466;28;20491;-57
2023/05/04 06:56:22;;;;;;;20.58;12.73;;;;;;;;;;5074161;28;20210;-56
2023/05/04 06:58:49;;;;;;;24.23;12.77;;;;;;;;;;5075192;28;20211;-57
2023/05/04 07:01:15;;;;;;;18.67;12.35;;;;;;;;;;5074737;28;20213;-56
2023/05/04 07:03:43;;;;;;;18.02;12.20;;;;;;;;;;5075147;28;20464;-57
2023/05/04 07:06:10;;;;;;;15.45;11.77;;;;;;;;;;5075451;28;20274;-56
2023/05/04 07:08:36;;;;;;;19.05;11.95;;;;;;;;;;5075158;28;20543;-57
2023/05/04 07:11:02;;;;;;;13.55;10.48;;;;;;;;;;5074727;28;20223;-58
2023/05/04 07:13:29;;;;;;;12.20;10.77;;;;;;;;;;5074257;28;20276;-56
2023/05/04 07:15:55;;;;;;;10.95;9.52;;;;;;;;;;5075262;28;20208;-57
2023/05/04 07:18:21;;;;;;;13.88;10.23;;;;;;;;;;5074793;28;20228;-57
2023/05/04 07:20:49;;;;;;;9.52;8.70;;;;;;;;;;5075470;28;20208;-57
2023/05/04 07:23:15;;;;;;;12.13;9.70;;;;;;;;;;5075239;28;20220;-57
2023/05/04 07:25:41;;;;;;;9.80;8.80;;;;;;;;;;5073921;28;21128;-54
2023/05/04 07:28:07;;;;;;;10.07;8.07;;;;;;;;;;5074507;28;20228;-56
2023/05/04 07:30:34;;;;;;;9.45;7.57;;;;;;;;;;5075157;28;20212;-56
2023/05/04 07:33:00;;;;;;;11.30;9.13;;;;;;;;;;5074995;28;20262;-56
2023/05/04 07:35:26;;;;;;;11.82;7.57;;;;;;;;;;5075465;28;20242;-57
2023/05/04 07:37:54;;;;;;;8.80;7.88;;;;;;;;;;5075008;28;20277;-55
2023/05/04 07:40:20;;;;;;;7.82;7.03;;;;;;;;;;5075161;28;20524;-57
2023/05/04 07:42:47;;;;;;;7.50;6.80;;;;;;;;;;5075800;28;20275;-57
2023/05/04 07:45:15;;;;;;;9.07;7.75;;;;;;;;;;5075160;28;20223;-56
2023/05/04 07:47:41;;;;;;;8.13;7.43;;;;;;;;;;5074745;28;20223;-57
2023/05/04 07:50:08;;;;;;;8.68;6.68;;;;;;;;;;5075189;28;20715;-57
2023/05/04 07:52:34;;;;;;;7.85;7.15;;;;;;;;;;5074394;28;20415;-56
2023/05/04 07:55:01;;;;;;;10.40;6.95;;;;;;;;;;5074268;28;20412;-56
2023/05/04 07:57:28;;;;;;;7.18;6.68;;;;;;;;;;5068980;28;20212;-56
2023/05/04 07:59:55;;;;;;;7.28;6.57;;;;;;;;;;5073999;28;20288;-57
2023/05/04 08:02:21;;;;;;;7.68;7.03;;;;;;;;;;5074497;28;20222;-57
2023/05/04 08:04:47;;;;;;;6.93;6.03;;;;;;;;;;5076829;28;20318;-57
2023/05/04 08:07:15;;;;;;;6.18;5.50;;;;;;;;;;5078663;28;20224;-57
2023/05/04 08:09:41;;;;;;;6.47;5.88;;;;;;;;;;5078261;28;20208;-57
2023/05/04 08:12:11;;;;;;;6.50;5.95;;;;;;;;;;5079291;28;20216;-57
2023/05/04 08:14:37;;;;;;;9.65;6.15;;;;;;;;;;5078144;28;20211;-57
2023/05/04 08:17:04;;;;;;;6.88;6.18;;;;;;;;;;5078515;28;20384;-56
2023/05/04 08:19:30;;;;;;;6.03;5.32;;;;;;;;;;5075455;28;20572;-56
2023/05/04 08:21:56;;;;;;;4.88;4.57;;;;;;;;;;5077908;28;20299;-57
2023/05/04 08:24:22;;;;;;;7.20;5.32;;;;;;;;;;5077612;28;20262;-56
2023/05/04 08:26:48;;;;;;;6.97;5.03;;;;;;;;;;5078148;28;20228;-56
2023/05/04 08:29:16;;;;;;;5.47;4.78;;;;;;;;;;5077887;28;20450;-56
2023/05/04 08:31:42;;;;;;;5.30;4.80;;;;;;;;;;5077518;28;20479;-57
2023/05/04 08:34:09;;;;;;;4.85;4.50;;;;;;;;;;5077561;28;20446;-56
2023/05/04 08:36:35;;;;;;;4.30;4.10;;;;;;;;;;5078765;28;20200;-56
2023/05/04 08:39:01;;;;;;;7.28;5.07;;;;;;;;;;5076952;28;20357;-57
2023/05/04 08:41:28;;;;;;;5.82;5.00;;;;;;;;;;5077439;28;20204;-56
2023/05/04 08:43:54;;;;;;;5.50;5.07;;;;;;;;;;5077891;28;20247;-57
2023/05/04 08:46:22;;;;;;;4.80;4.50;;;;;;;;;;5077487;28;20316;-56
2023/05/04 08:48:48;;;;;;;5.38;4.93;;;;;;;;;;5077407;28;20208;-55
2023/05/04 08:51:15;;;;;;;5.32;4.90;;;;;;;;;;5077821;28;20212;-57
2023/05/04 08:53:44;;;;;;;5.45;5.00;;;;;;;;;;5077085;28;20531;-56
2023/05/04 08:56:12;;;;;;;5.00;4.55;;;;;;;;;;5077585;28;20238;-57
2023/05/04 08:58:41;;;;;;;6.70;5.07;;;;;;;;;;5076935;28;20212;-57
2023/05/04 09:01:07;;;;;;;5.18;4.78;;;;;;;;;;5076887;28;20542;-57
2023/05/04 09:03:35;;;;;;;7.13;6.10;;;;;;;;;;5077107;28;20484;-57
2023/05/04 09:06:02;;;;;;;4.90;4.53;;;;;;;;;;5078017;28;20266;-57
2023/05/04 09:08:28;;;;;;;8.60;6.60;;;;;;;;;;5077227;28;20322;-56
2023/05/04 09:10:54;;;;;;;3.85;3.55;;;;;;;;;;5076972;28;20529;-55
2023/05/04 09:13:21;;;;;;;7.20;3.88;;;;;;;;;;5077890;28;20216;-56
2023/05/04 09:15:53;;;;;;;4.15;3.50;;;;;;;;;;5077386;28;20204;-55
2023/05/04 09:18:20;;;;;;;5.65;3.63;;;;;;;;;;5077627;28;20594;-56
2023/05/04 09:20:48;;;;;;;5.28;3.60;;;;;;;;;;5076522;28;20208;-57
2023/05/04 09:23:15;;;;;;;4.57;4.10;;;;;;;;;;5077394;28;20216;-57
2023/05/04 09:25:48;;;;;;;3.90;3.20;;;;;;;;;;5076401;28;20767;-56
2023/05/04 09:28:14;;;;;;;3.83;3.63;;;;;;;;;;5076638;28;20252;-57
2023/05/04 09:30:41;;;;;;;4.00;3.72;;;;;;;;;;5077279;28;20208;-57
2023/05/04 09:33:07;;;;;;;4.63;3.63;;;;;;;;;;5077210;28;20546;-56
2023/05/04 09:35:33;;;;;;;3.40;3.30;;;;;;;;;;5077270;28;20251;-56
2023/05/04 09:38:01;;;;;;;7.28;3.85;;;;;;;;;;5076811;28;20216;-55
2023/05/04 09:40:31;;;;;;;3.65;3.35;;;;;;;;;;5076925;28;20414;-56
2023/05/04 09:42:57;;;;;;;4.72;3.58;;;;;;;;;;5077474;28;20216;-56
2023/05/04 09:45:24;;;;;;;3.90;3.55;;;;;;;;;;5076140;28;20212;-55
2023/05/04 09:47:51;;;;;;;3.10;2.90;;;;;;;;;;5077001;28;20227;-56
2023/05/04 09:50:20;;;;;;;4.03;3.72;;;;;;;;;;5076453;28;20219;-56
2023/05/04 09:52:47;;;;;;;3.47;3.03;;;;;;;;;;5076699;28;20407;-56
2023/05/04 09:55:15;;;;;;;3.10;2.97;;;;;;;;;;5076201;28;20246;-56
2023/05/04 09:57:42;;;;;;;2.90;2.80;;;;;;;;;;5076486;28;20342;-57
2023/05/04 10:00:09;;;;;;;9.65;8.30;;;;;;;;;;5075907;28;20574;-56
2023/05/04 10:02:36;;;;;;;3.22;2.70;;;;;;;;;;5068550;28;20446;-58
2023/05/04 10:05:03;;;;;;;3.40;3.20;;;;;;;;;;5076878;28;20212;-59
2023/05/04 10:07:30;;;;;;;6.10;3.80;;;;;;;;;;5076641;28;20682;-56
2023/05/04 10:09:58;;;;;;;4.25;3.10;;;;;;;;;;5075800;28;20250;-57
2023/05/04 10:12:25;;;;;;;3.17;3.00;;;;;;;;;;5076960;28;20257;-56
2023/05/04 10:14:52;;;;;;;3.15;2.85;;;;;;;;;;5075435;28;20232;-57
2023/05/04 10:17:24;;;;;;;3.22;3.00;;;;;;;;;;5076802;28;20208;-56
2023/05/04 10:19:57;;;;;;;2.63;2.53;;;;;;;;;;5075585;28;20271;-57
2023/05/04 10:22:32;;;;;;;5.57;3.45;;;;;;;;;;5074786;28;20577;-57
2023/05/04 10:25:18;;;;;;;3.17;2.97;;;;;;;;;;5075946;28;20523;-58
2023/05/04 10:27:50;;;;;;;3.15;2.97;;;;;;;;;;5068828;28;20250;-58
2023/05/04 10:30:19;;;;;;;2.90;2.70;;;;;;;;;;5075370;28;20523;-58
2023/05/04 10:32:45;;;;;;;3.05;2.85;;;;;;;;;;5077047;28;20215;-58
2023/05/04 10:35:13;;;;;;;3.30;2.70;;;;;;;;;;5076820;28;20539;-58
2023/05/04 10:37:49;;;;;;;3.33;3.13;;;;;;;;;;5076784;28;20204;-58
2023/05/04 10:40:16;;;;;;;3.28;3.08;;;;;;;;;;5076271;28;20273;-58
2023/05/04 10:42:43;;;;;;;3.10;2.90;;;;;;;;;;5075815;28;20208;-58
2023/05/04 10:45:12;;;;;;;2.58;2.47;;;;;;;;;;5076251;28;20265;-58
2023/05/04 10:47:39;;;;;;;4.30;2.97;;;;;;;;;;5074686;28;20287;-58
2023/05/04 10:50:06;;;;;;;3.70;3.00;;;;;;;;;;5076010;28;20208;-59
2023/05/04 10:52:44;;;;;;;3.20;2.90;;;;;;;;;;5075818;28;20212;-59
2023/05/04 10:55:10;;;;;;;3.42;3.22;;;;;;;;;;5075537;28;20277;-55
2023/05/04 10:57:46;;;;;;;4.75;2.88;;;;;;;;;;5075895;28;20212;-56
2023/05/04 11:00:14;;;;;;;3.47;3.17;;;;;;;;;;5075413;28;20211;-56
2023/05/04 11:02:41;;;;;;;4.18;2.88;;;;;;;;;;5072198;28;20253;-57
2023/05/04 11:05:08;;;;;;;2.95;2.85;;;;;;;;;;5076231;28;20235;-57
2023/05/04 11:07:35;;;;;;;2.60;2.45;;;;;;;;;;5075562;28;20275;-57
2023/05/04 11:10:02;;;;;;;2.90;2.70;;;;;;;;;;5074860;28;20235;-57
2023/05/04 11:12:28;;;;;;;3.13;2.92;;;;;;;;;;5075104;28;20630;-55
2023/05/04 11:15:03;;;;;;;2.80;2.70;;;;;;;;;;5075059;28;20216;-56
2023/05/04 11:17:31;;;;;;;2.50;2.40;;;;;;;;;;5074977;28;20457;-57
2023/05/04 11:19:57;;;;;;;4.68;2.78;;;;;;;;;;5075118;28;20212;-57
2023/05/04 11:22:23;;;;;;;2.72;2.35;;;;;;;;;;5075550;28;20208;-57
2023/05/04 11:24:50;;;;;;;7.20;2.78;;;;;;;;;;5074729;28;20257;-57
2023/05/04 11:27:27;;;;;;;3.80;3.60;;;;;;;;;;5074709;28;20294;-58
2023/05/04 11:29:54;;;;;;;5.63;2.78;;;;;;;;;;5074966;28;20208;-58
2023/05/04 11:32:20;;;;;;;3.28;2.95;;;;;;;;;;5075188;28;20295;-57
2023/05/04 11:34:48;;;;;;;5.72;3.03;;;;;;;;;;5075214;28;20253;-57
2023/05/04 11:37:14;;;;;;;3.45;3.15;;;;;;;;;;5074910;28;20211;-58
2023/05/04 11:39:41;;;;;;;3.67;3.30;;;;;;;;;;5074567;28;20259;-58
2023/05/04 11:42:07;;;;;;;4.10;3.40;;;;;;;;;;5074902;28;20441;-57
2023/05/04 11:44:34;;;;;;;3.05;2.92;;;;;;;;;;5074658;28;20211;-57
2023/05/04 11:47:00;;;;;;;3.92;2.30;;;;;;;;;;5074948;28;20463;-57
2023/05/04 11:49:27;;;;;;;5.57;3.10;;;;;;;;;;5074238;28;20223;-57
2023/05/04 11:52:04;;;;;;;3.00;2.80;;;;;;;;;;5074929;28;20208;-57
2023/05/04 11:54:30;;;;;;;4.32;3.50;;;;;;;;;;5074984;28;20234;-57
2023/05/04 11:56:57;;;;;;;3.33;3.13;;;;;;;;;;5075022;28;20208;-57
2023/05/04 11:59:23;;;;;;;3.95;3.63;;;;;;;;;;5074289;28;20218;-57
2023/05/04 12:01:50;;;;;;;3.80;3.60;;;;;;;;;;5074963;28;20231;-57
2023/05/04 12:04:16;;;;;;;3.78;3.33;;;;;;;;;;5074474;28;20547;-57
2023/05/04 12:06:42;;;;;;;3.50;3.30;;;;;;;;;;5067721;28;20220;-57
2023/05/04 12:09:10;;;;;;;4.20;3.90;;;;;;;;;;5074041;28;20212;-57
2023/05/04 12:11:37;;;;;;;3.88;3.60;;;;;;;;;;5074094;28;20281;-57
2023/05/04 12:14:05;;;;;;;5.18;4.15;;;;;;;;;;5074648;28;20531;-58
2023/05/04 12:16:31;;;;;;;4.32;3.95;;;;;;;;;;5074632;28;20217;-57
2023/05/04 12:19:01;;;;;;;4.15;3.85;;;;;;;;;;5074936;28;20297;-57
2023/05/04 12:21:28;;;;;;;6.13;3.58;;;;;;;;;;5074285;28;20246;-57
2023/05/04 12:23:56;;;;;;;4.10;3.70;;;;;;;;;;5068450;28;20287;-56
2023/05/04 12:26:26;;;;;;;3.53;3.33;;;;;;;;;;5069096;28;20220;-59
2023/05/04 12:28:52;;;;;;;6.07;4.32;;;;;;;;;;5074832;28;20223;-59
2023/05/04 12:31:18;;;;;;;5.32;4.82;;;;;;;;;;5066808;28;20286;-57
2023/05/04 12:33:45;;;;;;;4.32;4.03;;;;;;;;;;5072830;28;20225;-56
2023/05/04 12:36:11;;;;;;;5.10;4.60;;;;;;;;;;5065787;28;20212;-57
2023/05/04 12:38:37;;;;;;;4.15;3.92;;;;;;;;;;5071049;28;20230;-58
2023/05/04 12:41:04;;;;;;;6.35;3.92;;;;;;;;;;5064829;28;20484;-57
2023/05/04 12:43:32;;;;;;;5.07;4.57;;;;;;;;;;5068521;28;20551;-57
2023/05/04 12:45:58;;;;;;;5.10;4.50;;;;;;;;;;5072455;28;20523;-57
2023/05/04 12:48:27;;;;;;;6.50;3.80;;;;;;;;;;5073209;28;20232;-57
2023/05/04 12:50:53;;;;;;;4.47;4.07;;;;;;;;;;5075631;28;20212;-57
2023/05/04 12:53:21;;;;;;;6.30;4.53;;;;;;;;;;5077917;28;20271;-56
2023/05/04 12:55:47;;;;;;;3.90;3.70;;;;;;;;;;5075107;28;20208;-56
2023/05/04 12:58:13;;;;;;;4.10;3.63;;;;;;;;;;5077761;28;20204;-58
2023/05/04 13:00:42;;;;;;;5.10;4.68;;;;;;;;;;5077579;28;20250;-56
2023/05/04 13:03:08;;;;;;;6.95;3.90;;;;;;;;;;5077637;28;20261;-57
2023/05/04 13:05:34;;;;;;;4.03;3.72;;;;;;;;;;5077653;28;20212;-57
2023/05/04 13:08:00;;;;;;;6.70;4.43;;;;;;;;;;5076822;28;20234;-57
2023/05/04 13:10:27;;;;;;;7.10;4.97;;;;;;;;;;5077054;28;20239;-57
2023/05/04 13:12:53;;;;;;;4.63;4.22;;;;;;;;;;5077475;28;20212;-57
2023/05/04 13:15:19;;;;;;;4.00;3.63;;;;;;;;;;5077714;28;20219;-57
2023/05/04 13:17:47;;;;;;;4.25;3.95;;;;;;;;;;5076991;28;20242;-57
2023/05/04 13:20:13;;;;;;;4.53;4.10;;;;;;;;;;5077323;28;20303;-57
2023/05/04 13:22:40;;;;;;;4.25;3.80;;;;;;;;;;5082006;28;20203;-59
2023/05/04 13:25:07;;;;;;;4.80;4.40;;;;;;;;;;5084823;28;20246;-59
2023/05/04 13:27:33;;;;;;;4.78;4.35;;;;;;;;;;5084287;28;20235;-59
2023/05/04 13:30:01;;;;;;;5.25;4.20;;;;;;;;;;5083747;28;20275;-59
2023/05/04 13:32:28;;;;;;;7.43;5.00;;;;;;;;;;5083904;28;20207;-59
2023/05/04 13:34:55;;;;;;;4.68;4.10;;;;;;;;;;5084174;28;20241;-59
2023/05/04 13:37:22;;;;;;;6.13;4.60;;;;;;;;;;5083892;28;20264;-59
2023/05/04 13:39:48;;;;;;;4.97;4.55;;;;;;;;;;5083937;28;20224;-59
2023/05/04 13:42:14;;;;;;;6.72;4.55;;;;;;;;;;5083907;28;20200;-59
2023/05/04 13:44:44;;;;;;;4.22;3.90;;;;;;;;;;5083837;28;20200;-59
2023/05/04 13:47:10;;;;;;;4.30;3.67;;;;;;;;;;5083787;28;20253;-59
2023/05/04 13:49:36;;;;;;;5.57;4.30;;;;;;;;;;5083652;28;20203;-59
2023/05/04 13:52:04;;;;;;;4.25;3.95;;;;;;;;;;5083826;28;20200;-59
2023/05/04 13:54:30;;;;;;;3.28;2.97;;;;;;;;;;5083627;28;20204;-59
2023/05/04 13:56:57;;;;;;;3.70;3.40;;;;;;;;;;5083829;28;20503;-59
2023/05/04 13:59:24;;;;;;;7.38;3.60;;;;;;;;;;5083373;28;20444;-59
2023/05/04 14:01:51;;;;;;;3.90;3.60;;;;;;;;;;5082498;28;20246;-59
2023/05/04 14:04:17;;;;;;;4.25;3.95;;;;;;;;;;5083636;28;20200;-59
2023/05/04 14:06:44;;;;;;;4.45;4.05;;;;;;;;;;5083495;28;20204;-59
2023/05/04 14:09:11;;;;;;;4.63;3.10;;;;;;;;;;5083147;28;20239;-59
2023/05/04 14:11:37;;;;;;;3.67;3.38;;;;;;;;;;5083785;28;20239;-59
2023/05/04 14:14:04;;;;;;;5.18;3.92;;;;;;;;;;5083258;28;20221;-59
2023/05/04 14:16:30;;;;;;;3.60;3.40;;;;;;;;;;5083015;28;20204;-59
2023/05/04 14:18:56;;;;;;;3.60;3.08;;;;;;;;;;5083370;28;20195;-59
2023/05/04 14:21:22;;;;;;;3.20;3.00;;;;;;;;;;5083287;28;20206;-59
2023/05/04 14:23:49;;;;;;;4.03;3.63;;;;;;;;;;5083057;28;20200;-59
2023/05/04 14:26:16;;;;;;;4.43;3.70;;;;;;;;;;5083061;28;20204;-59
2023/05/04 14:28:43;;;;;;;3.92;3.55;;;;;;;;;;5082657;28;20224;-59
2023/05/04 14:31:10;;;;;;;3.67;3.47;;;;;;;;;;5082730;28;20237;-59
2023/05/04 14:33:36;;;;;;;3.35;3.05;;;;;;;;;;5082677;28;20233;-59
2023/05/04 14:36:04;;;;;;;4.03;2.97;;;;;;;;;;5082990;28;20223;-59